createdAt,value
2017-09-12T00:01:06.060Z,13.90
2017-09-12T00:03:32.014Z,13.90
2017-09-12T00:05:57.975Z,13.90
2017-09-12T00:08:23.947Z,13.90
2017-09-12T00:10:49.915Z,13.90
2017-09-12T00:13:15.821Z,13.90
2017-09-12T00:15:42.061Z,13.90
2017-09-12T00:18:07.986Z,13.90
2017-09-12T00:20:33.945Z,13.80
2017-09-12T00:22:59.887Z,14.00
2017-09-12T00:25:25.811Z,14.00
2017-09-12T00:27:52.463Z,13.90
2017-09-12T00:30:18.454Z,13.90
2017-09-12T00:32:45.358Z,13.90
2017-09-12T00:35:11.388Z,13.90
2017-09-12T00:37:37.348Z,13.90
2017-09-12T00:40:05.108Z,14.00
2017-09-12T00:42:31.238Z,14.00
2017-09-12T00:44:57.285Z,14.00
2017-09-12T00:47:23.535Z,13.90
2017-09-12T00:49:49.638Z,14.10
2017-09-12T00:52:15.679Z,13.90
2017-09-12T00:54:41.687Z,13.80
2017-09-12T00:57:08.540Z,14.00
2017-09-12T00:59:34.507Z,13.90
2017-09-12T01:02:00.569Z,13.90
2017-09-12T01:04:27.425Z,13.90
2017-09-12T01:06:54.913Z,13.90
2017-09-12T01:09:21.013Z,13.80
2017-09-12T01:11:47.052Z,13.80
2017-09-12T01:14:13.871Z,13.70
2017-09-12T01:16:39.948Z,13.60
2017-09-12T01:19:06.086Z,13.70
2017-09-12T01:21:32.921Z,13.70
2017-09-12T01:23:58.920Z,13.60
2017-09-12T01:26:24.955Z,13.60
2017-09-12T01:28:51.046Z,13.60
2017-09-12T01:31:17.091Z,13.50
2017-09-12T01:33:43.099Z,13.70
2017-09-12T01:36:09.192Z,13.70
2017-09-12T01:38:35.325Z,13.70
2017-09-12T01:41:02.371Z,13.60
2017-09-12T01:43:28.544Z,13.50
2017-09-12T01:45:54.632Z,13.60
2017-09-12T01:48:22.450Z,13.50
2017-09-12T01:50:48.683Z,13.50
2017-09-12T01:53:15.475Z,13.40
2017-09-12T01:55:41.517Z,13.30
2017-09-12T01:58:07.588Z,13.40
2017-09-12T02:00:34.559Z,13.30
2017-09-12T02:03:00.603Z,13.20
2017-09-12T02:05:26.516Z,13.30
2017-09-12T02:07:52.506Z,13.20
2017-09-12T02:10:18.525Z,13.20
2017-09-12T02:12:44.801Z,13.20
2017-09-12T02:15:11.573Z,13.10
2017-09-12T02:17:37.948Z,13.10
2017-09-12T02:20:04.005Z,13.10
2017-09-12T02:22:29.988Z,13.00
2017-09-12T02:24:56.783Z,13.10
2017-09-12T02:27:22.843Z,13.10
2017-09-12T02:29:48.939Z,13.20
2017-09-12T02:32:15.235Z,13.20
2017-09-12T02:34:41.276Z,13.20
2017-09-12T02:37:08.239Z,13.30
2017-09-12T02:39:34.242Z,13.20
2017-09-12T02:42:00.251Z,13.40
2017-09-12T02:44:26.333Z,13.20
2017-09-12T02:46:52.561Z,13.20
2017-09-12T02:49:19.356Z,13.20
2017-09-12T02:51:45.397Z,13.10
2017-09-12T02:54:12.198Z,13.10
2017-09-12T02:56:38.235Z,13.10
2017-09-12T02:59:05.007Z,13.10
2017-09-12T03:01:31.037Z,13.00
2017-09-12T03:03:57.097Z,13.10
2017-09-12T03:06:23.154Z,13.00
2017-09-12T03:08:49.221Z,13.10
2017-09-12T03:11:15.293Z,13.10
2017-09-12T03:13:41.368Z,13.10
2017-09-12T03:16:07.313Z,13.20
2017-09-12T03:18:33.516Z,13.10
2017-09-12T03:20:59.576Z,13.10
2017-09-12T03:23:25.631Z,13.20
2017-09-12T03:25:51.926Z,13.10
2017-09-12T03:28:17.947Z,13.10
2017-09-12T03:30:43.961Z,12.90
2017-09-12T03:33:10.101Z,13.00
2017-09-12T03:35:36.116Z,12.90
2017-09-12T03:38:02.164Z,12.90
2017-09-12T03:40:29.216Z,13.00
2017-09-12T03:42:55.344Z,13.10
2017-09-12T03:45:26.357Z,13.10
2017-09-12T03:47:52.415Z,13.10
2017-09-12T03:50:18.495Z,13.10
2017-09-12T03:52:44.537Z,13.10
2017-09-12T03:55:11.724Z,13.00
2017-09-12T03:57:37.714Z,13.10
2017-09-12T04:00:04.543Z,13.00
2017-09-12T04:02:30.592Z,13.10
2017-09-12T04:04:56.640Z,13.10
2017-09-12T04:07:23.395Z,13.10
2017-09-12T04:09:49.675Z,13.10
2017-09-12T04:12:15.665Z,13.00
2017-09-12T04:14:41.694Z,13.00
2017-09-12T04:17:08.517Z,13.10
2017-09-12T04:19:34.933Z,13.00
2017-09-12T04:22:01.021Z,13.10
2017-09-12T04:24:27.317Z,13.10
2017-09-12T04:26:53.344Z,13.10
2017-09-12T04:29:19.387Z,13.10
2017-09-12T04:31:48.782Z,13.10
2017-09-12T04:34:15.104Z,13.10
2017-09-12T04:36:41.127Z,13.10
2017-09-12T04:39:07.227Z,13.10
2017-09-12T04:41:33.172Z,13.10
2017-09-12T04:43:59.541Z,13.10
2017-09-12T04:46:25.513Z,13.20
2017-09-12T04:48:51.416Z,13.10
2017-09-12T04:51:17.343Z,13.00
2017-09-12T04:53:43.871Z,13.00
2017-09-12T04:56:09.820Z,13.00
2017-09-12T04:58:36.567Z,13.00
2017-09-12T05:01:02.621Z,12.90
2017-09-12T05:03:29.270Z,13.00
2017-09-12T05:05:55.245Z,13.10
2017-09-12T05:08:21.254Z,13.10
2017-09-12T05:10:47.201Z,13.10
2017-09-12T05:13:13.891Z,13.20
2017-09-12T05:15:40.107Z,13.20
2017-09-12T05:18:06.167Z,13.20
2017-09-12T05:20:33.117Z,13.40
2017-09-12T05:22:59.097Z,13.30
2017-09-12T05:25:25.037Z,13.30
2017-09-12T05:27:50.973Z,13.20
2017-09-12T05:30:17.184Z,13.20
2017-09-12T05:32:43.097Z,13.30
2017-09-12T05:35:09.041Z,13.30
2017-09-12T05:37:35.045Z,13.40
2017-09-12T05:40:00.986Z,13.50
2017-09-12T05:42:26.986Z,13.60
2017-09-12T05:44:52.991Z,13.40
2017-09-12T05:47:19.699Z,13.50
2017-09-12T05:49:45.719Z,13.50
2017-09-12T05:52:12.395Z,13.50
2017-09-12T05:54:38.384Z,13.40
2017-09-12T05:57:05.069Z,13.50
2017-09-12T05:59:31.014Z,13.50
2017-09-12T06:01:56.948Z,13.50
2017-09-12T06:04:23.091Z,13.50
2017-09-12T06:06:49.032Z,13.50
2017-09-12T06:09:15.308Z,13.50
2017-09-12T06:11:41.343Z,13.60
2017-09-12T06:14:07.555Z,13.60
2017-09-12T06:16:33.716Z,13.60
2017-09-12T06:18:59.861Z,13.50
2017-09-12T06:21:26.886Z,13.80
2017-09-12T06:23:53.584Z,13.80
2017-09-12T06:26:19.531Z,13.70
2017-09-12T06:28:45.545Z,13.90
2017-09-12T06:31:13.388Z,13.90
2017-09-12T06:33:40.158Z,13.90
2017-09-12T06:36:06.278Z,14.10
2017-09-12T06:38:32.384Z,14.10
2017-09-12T06:40:58.435Z,14.00
2017-09-12T06:43:24.428Z,14.00
2017-09-12T06:45:50.378Z,14.00
2017-09-12T06:48:16.401Z,14.10
2017-09-12T06:50:42.424Z,14.00
2017-09-12T06:53:08.571Z,14.10
2017-09-12T06:55:34.571Z,14.20
2017-09-12T06:58:01.275Z,14.30
2017-09-12T07:00:27.236Z,14.40
2017-09-12T07:02:53.212Z,14.40
2017-09-12T07:05:19.220Z,14.50
2017-09-12T07:07:45.202Z,14.70
2017-09-12T07:10:12.496Z,14.70
2017-09-12T07:12:38.471Z,14.60
2017-09-12T07:15:05.185Z,14.90
2017-09-12T07:17:32.097Z,14.90
2017-09-12T07:19:58.123Z,15.00
2017-09-12T07:22:24.116Z,15.00
2017-09-12T07:24:50.152Z,15.00
2017-09-12T07:27:16.446Z,15.00
2017-09-12T07:29:42.390Z,15.10
2017-09-12T07:32:08.394Z,15.10
2017-09-12T07:34:34.420Z,15.10
2017-09-12T07:37:00.549Z,15.20
2017-09-12T07:39:26.705Z,15.00
2017-09-12T07:41:52.786Z,15.20
2017-09-12T07:44:19.525Z,15.20
2017-09-12T07:46:45.548Z,15.10
2017-09-12T07:49:12.210Z,15.30
2017-09-12T07:51:38.213Z,15.30
2017-09-12T07:54:04.388Z,15.30
2017-09-12T07:56:30.357Z,15.30
2017-09-12T07:58:56.360Z,15.10
2017-09-12T08:01:23.840Z,15.00
2017-09-12T08:03:51.509Z,14.90
2017-09-12T08:06:17.523Z,14.90
2017-09-12T08:08:45.148Z,14.90
2017-09-12T08:11:12.027Z,14.90
2017-09-12T08:13:38.870Z,14.90
2017-09-12T08:16:06.516Z,15.00
2017-09-12T08:18:32.985Z,15.00
2017-09-12T08:20:59.341Z,15.10
2017-09-12T08:23:28.147Z,15.10
2017-09-12T08:25:54.684Z,15.20
2017-09-12T08:28:21.556Z,15.30
2017-09-12T08:30:47.594Z,15.40
2017-09-12T08:33:13.831Z,15.40
2017-09-12T08:35:39.821Z,15.60
2017-09-12T08:38:05.992Z,15.70
2017-09-12T08:40:32.708Z,15.80
2017-09-12T08:42:58.770Z,15.90
2017-09-12T08:45:25.739Z,16.00
2017-09-12T08:47:51.707Z,16.00
2017-09-12T08:50:17.743Z,15.90
2017-09-12T08:52:43.731Z,16.00
2017-09-12T08:55:09.665Z,16.10
2017-09-12T08:57:35.620Z,16.00
2017-09-12T09:00:04.521Z,16.00
2017-09-12T09:02:30.478Z,15.80
2017-09-12T09:04:57.067Z,15.60
2017-09-12T09:07:23.189Z,15.80
2017-09-12T09:09:49.154Z,15.70
2017-09-12T09:12:15.071Z,15.70
2017-09-12T09:14:40.989Z,15.70
2017-09-12T09:17:06.938Z,15.90
2017-09-12T09:19:32.929Z,16.10
2017-09-12T09:21:59.115Z,16.20
2017-09-12T09:24:26.908Z,16.10
2017-09-12T09:29:24.714Z,16.30
2017-09-12T09:31:51.557Z,16.30
2017-09-12T09:34:18.413Z,16.40
2017-09-12T09:36:45.339Z,16.50
2017-09-12T09:39:11.316Z,16.40
2017-09-12T09:41:37.599Z,16.50
2017-09-12T09:44:03.746Z,16.40
2017-09-12T09:46:29.712Z,16.60
2017-09-12T09:48:55.787Z,16.70
2017-09-12T09:51:21.775Z,16.70
2017-09-12T09:53:52.032Z,16.70
2017-09-12T09:56:18.012Z,16.70
2017-09-12T09:58:45.411Z,16.90
2017-09-12T10:01:11.432Z,17.00
2017-09-12T10:03:37.419Z,17.10
2017-09-12T10:06:03.375Z,17.10
2017-09-12T10:08:29.419Z,17.10
2017-09-12T10:10:55.377Z,17.10
2017-09-12T10:13:21.369Z,17.20
2017-09-12T10:15:48.032Z,17.10
2017-09-12T10:18:13.944Z,17.10
2017-09-12T10:20:39.899Z,16.90
2017-09-12T10:23:06.632Z,17.10
2017-09-12T10:25:32.761Z,17.10
2017-09-12T10:27:58.709Z,17.10
2017-09-12T10:30:24.683Z,17.10
2017-09-12T10:32:50.685Z,17.00
2017-09-12T10:35:16.624Z,16.80
2017-09-12T10:37:43.591Z,16.80
2017-09-12T10:40:09.529Z,16.90
2017-09-12T10:42:35.540Z,16.80
2017-09-12T10:45:01.527Z,16.80
2017-09-12T10:47:27.475Z,16.70
2017-09-12T10:49:54.307Z,16.60
2017-09-12T10:52:20.301Z,16.40
2017-09-12T10:54:46.284Z,16.30
2017-09-12T10:57:12.230Z,16.10
2017-09-12T10:59:38.199Z,16.10
2017-09-12T11:02:04.236Z,16.10
2017-09-12T11:04:30.933Z,16.30
2017-09-12T11:06:56.863Z,16.30
2017-09-12T11:09:22.818Z,16.50
2017-09-12T11:11:48.754Z,16.70
2017-09-12T11:14:15.450Z,17.30
2017-09-12T11:16:42.036Z,17.20
2017-09-12T11:19:07.983Z,17.50
2017-09-12T11:21:33.933Z,17.60
2017-09-12T11:24:00.350Z,17.40
2017-09-12T11:26:26.314Z,17.40
2017-09-12T11:28:52.297Z,17.40
2017-09-12T11:31:18.255Z,17.40
2017-09-12T11:33:44.205Z,17.40
2017-09-12T11:36:10.128Z,17.50
2017-09-12T11:38:37.095Z,17.70
2017-09-12T11:41:03.048Z,17.80
2017-09-12T11:43:28.965Z,17.70
2017-09-12T11:45:54.919Z,17.40
2017-09-12T11:48:20.871Z,17.10
2017-09-12T11:50:46.819Z,16.80
2017-09-12T11:53:13.519Z,16.30
2017-09-12T11:55:39.451Z,16.20
2017-09-12T11:58:05.451Z,16.20
2017-09-12T12:00:31.455Z,16.50
2017-09-12T12:02:57.415Z,16.50
2017-09-12T12:05:23.353Z,16.80
2017-09-12T12:07:49.589Z,16.60
2017-09-12T12:10:16.807Z,16.90
2017-09-12T12:12:42.780Z,17.40
2017-09-12T12:15:09.259Z,17.60
2017-09-12T12:17:36.777Z,17.50
2017-09-12T12:20:02.738Z,17.80
2017-09-12T12:22:29.661Z,18.00
2017-09-12T12:24:55.808Z,18.40
2017-09-12T12:27:23.265Z,18.60
2017-09-12T12:29:52.551Z,18.40
2017-09-12T12:32:19.444Z,18.30
2017-09-12T12:34:45.776Z,18.10
2017-09-12T12:37:11.777Z,17.90
2017-09-12T12:47:15.049Z,18.40
2017-09-12T12:49:42.192Z,18.30
2017-09-12T12:52:09.251Z,18.20
2017-09-12T12:54:35.950Z,18.10
2017-09-12T12:57:02.656Z,18.10
2017-09-12T12:59:28.723Z,17.90
2017-09-12T13:01:55.375Z,18.00
2017-09-12T13:04:26.487Z,18.10
2017-09-12T13:06:52.441Z,18.30
2017-09-12T13:09:20.049Z,18.20
2017-09-12T13:11:47.955Z,18.30
2017-09-12T13:14:14.479Z,18.50
2017-09-12T13:16:41.446Z,19.00
2017-09-12T13:19:09.218Z,19.50
2017-09-12T13:21:37.226Z,19.60
2017-09-12T13:24:04.916Z,19.50
2017-09-12T13:26:31.649Z,19.70
2017-09-12T13:28:57.655Z,19.60
2017-09-12T13:31:23.637Z,19.50
2017-09-12T13:33:49.749Z,19.70
2017-09-12T13:36:15.778Z,20.20
2017-09-12T13:38:41.923Z,20.20
2017-09-12T13:43:38.631Z,19.40
2017-09-12T13:46:04.673Z,19.20
2017-09-12T13:48:30.712Z,18.80
2017-09-12T13:50:57.014Z,19.00
2017-09-12T13:53:24.172Z,19.20
2017-09-12T13:55:51.092Z,19.10
2017-09-12T13:58:17.662Z,19.20
2017-09-12T14:00:43.863Z,19.50
2017-09-12T14:03:10.840Z,19.40
2017-09-12T14:05:38.559Z,19.40
2017-09-12T14:08:04.732Z,19.30
2017-09-12T14:10:33.257Z,18.90
2017-09-12T14:13:00.798Z,18.80
2017-09-12T14:15:27.788Z,18.60
2017-09-12T14:17:54.560Z,18.60
2017-09-12T14:20:21.695Z,18.60
2017-09-12T14:22:47.861Z,18.60
2017-09-12T14:25:14.150Z,18.60
2017-09-12T14:27:40.196Z,18.70
2017-09-12T14:30:06.229Z,18.70
2017-09-12T14:32:36.255Z,19.10
2017-09-12T14:35:08.022Z,19.20
2017-09-12T14:37:33.992Z,18.90
2017-09-12T14:40:00.730Z,18.80
2017-09-12T14:42:28.624Z,18.70
2017-09-12T14:44:54.644Z,18.60
2017-09-12T14:47:20.644Z,18.80
2017-09-12T14:49:47.926Z,18.70
2017-09-12T14:52:15.744Z,18.60
2017-09-12T14:54:43.522Z,19.10
2017-09-12T14:57:09.664Z,19.10
2017-09-12T14:59:35.644Z,19.70
2017-09-12T15:02:02.735Z,20.20
2017-09-12T15:04:28.814Z,20.10
2017-09-12T15:06:54.850Z,20.20
2017-09-12T15:09:23.615Z,20.40
2017-09-12T15:11:49.696Z,20.40
2017-09-12T15:14:15.969Z,19.90
2017-09-12T15:16:43.224Z,19.60
2017-09-12T15:19:09.343Z,19.40
2017-09-12T15:21:35.353Z,19.10
2017-09-12T15:24:03.011Z,18.90
2017-09-12T15:26:29.764Z,18.70
2017-09-12T15:28:56.780Z,18.80
2017-09-12T15:31:22.789Z,18.80
2017-09-12T15:33:51.439Z,18.60
2017-09-12T15:36:18.435Z,18.60
2017-09-12T15:38:44.698Z,18.50
2017-09-12T15:41:11.455Z,18.80
2017-09-12T15:43:37.430Z,18.70
2017-09-12T15:46:03.859Z,18.70
2017-09-12T15:48:29.835Z,18.70
2017-09-12T15:50:55.875Z,18.50
2017-09-12T15:53:21.988Z,18.40
2017-09-12T15:55:48.271Z,18.40
2017-09-12T15:58:14.359Z,18.50
2017-09-12T16:00:40.264Z,18.40
2017-09-12T16:03:06.223Z,18.30
2017-09-12T16:05:32.211Z,18.20
2017-09-12T16:07:58.158Z,17.10
2017-09-12T16:10:24.146Z,16.00
2017-09-12T16:12:50.095Z,15.60
2017-09-12T16:15:16.070Z,15.30
2017-09-12T16:17:42.042Z,15.30
2017-09-12T16:20:07.989Z,15.00
2017-09-12T16:22:33.955Z,15.00
2017-09-12T16:25:00.751Z,15.00
2017-09-12T16:27:26.690Z,15.00
2017-09-12T16:29:52.815Z,15.00
2017-09-12T16:32:18.727Z,15.10
2017-09-12T16:34:45.400Z,15.10
2017-09-12T16:37:11.337Z,15.10
2017-09-12T16:39:38.325Z,15.40
2017-09-12T16:42:05.581Z,15.40
2017-09-12T16:44:31.495Z,15.40
2017-09-12T16:46:57.447Z,15.50
2017-09-12T16:49:23.367Z,15.40
2017-09-12T16:51:49.380Z,15.50
2017-09-12T16:54:16.075Z,15.30
2017-09-12T16:56:42.038Z,15.20
2017-09-12T16:59:07.964Z,15.20
2017-09-12T17:01:33.919Z,15.10
2017-09-12T17:03:59.839Z,15.20
2017-09-12T17:06:25.797Z,15.10
2017-09-12T17:08:51.736Z,15.10
2017-09-12T17:11:17.649Z,14.90
2017-09-12T17:13:43.561Z,14.80
2017-09-12T17:16:09.472Z,14.80
2017-09-12T17:18:35.399Z,15.00
2017-09-12T17:21:01.420Z,15.10
2017-09-12T17:23:27.339Z,15.10
2017-09-12T17:25:54.306Z,15.00
2017-09-12T17:28:20.236Z,14.90
2017-09-12T17:30:47.204Z,14.70
2017-09-12T17:33:13.129Z,14.50
2017-09-12T17:35:39.019Z,14.30
2017-09-12T17:38:05.674Z,14.20
2017-09-12T17:40:31.659Z,14.20
2017-09-12T17:42:57.768Z,14.00
2017-09-12T17:45:23.791Z,14.00
2017-09-12T17:47:49.779Z,14.00
2017-09-12T17:50:15.735Z,14.10
2017-09-12T17:52:41.698Z,14.10
2017-09-12T17:55:07.695Z,14.00
2017-09-12T17:57:33.596Z,13.90
2017-09-12T17:59:59.889Z,13.80
2017-09-12T18:02:25.875Z,13.60
2017-09-12T18:04:51.823Z,13.60
2017-09-12T18:07:17.812Z,13.50
2017-09-12T18:09:43.767Z,13.50
2017-09-12T18:12:09.713Z,13.40
2017-09-12T18:14:35.709Z,13.40
2017-09-12T18:17:01.728Z,13.40
2017-09-12T18:19:27.735Z,13.50
2017-09-12T18:21:54.463Z,13.40
2017-09-12T18:24:21.225Z,13.40
2017-09-12T18:26:47.142Z,13.30
2017-09-12T18:29:13.167Z,13.40
2017-09-12T18:31:39.138Z,13.30
2017-09-12T18:34:05.174Z,13.20
2017-09-12T18:36:31.126Z,13.30
2017-09-12T18:38:57.845Z,13.30
2017-09-12T18:41:24.614Z,13.40
2017-09-12T18:43:50.589Z,13.30
2017-09-12T18:46:16.527Z,13.50
2017-09-12T18:48:42.481Z,13.40
2017-09-12T18:51:09.247Z,13.50
2017-09-12T18:53:35.241Z,13.60
2017-09-12T18:56:01.147Z,13.60
2017-09-12T18:58:27.847Z,13.80
2017-09-12T19:00:54.571Z,13.90
2017-09-12T19:03:20.593Z,13.90
2017-09-12T19:05:46.624Z,14.10
2017-09-12T19:08:12.643Z,14.10
2017-09-12T19:10:38.641Z,14.20
2017-09-12T19:13:04.645Z,14.30
2017-09-12T19:15:30.691Z,14.30
2017-09-12T19:17:56.646Z,14.40
2017-09-12T19:20:22.695Z,14.30
2017-09-12T19:22:49.365Z,14.40
2017-09-12T19:25:15.328Z,14.30
2017-09-12T19:27:41.301Z,14.30
2017-09-12T19:30:07.366Z,14.30
2017-09-12T19:32:33.480Z,14.20
2017-09-12T19:34:59.432Z,14.20
2017-09-12T19:37:25.473Z,14.20
2017-09-12T19:39:52.284Z,14.20
2017-09-12T19:42:18.386Z,14.10
2017-09-12T19:44:44.446Z,14.20
2017-09-12T19:47:10.767Z,14.20
2017-09-12T19:49:36.886Z,14.10
2017-09-12T19:52:02.866Z,14.10
2017-09-12T19:54:28.821Z,14.10
2017-09-12T19:56:54.745Z,14.00
2017-09-12T19:59:20.785Z,14.00
2017-09-12T20:01:46.809Z,14.00
2017-09-12T20:04:12.761Z,14.00
2017-09-12T20:06:39.559Z,14.10
2017-09-12T20:09:05.570Z,14.10
2017-09-12T20:11:31.494Z,14.00
2017-09-12T20:13:57.553Z,14.00
2017-09-12T20:16:23.715Z,14.00
2017-09-12T20:18:49.768Z,13.90
2017-09-12T20:21:15.779Z,13.90
2017-09-12T20:23:41.737Z,13.90
2017-09-12T20:26:07.718Z,13.90
2017-09-12T20:28:33.695Z,13.90
2017-09-12T20:30:59.662Z,13.90
2017-09-12T20:33:25.632Z,13.90
2017-09-12T20:35:51.768Z,14.00
2017-09-12T20:38:17.885Z,14.00
2017-09-12T20:40:43.947Z,13.90
2017-09-12T20:43:10.813Z,13.90
2017-09-12T20:45:37.025Z,13.80
2017-09-12T20:48:03.071Z,13.90
2017-09-12T20:50:29.081Z,14.00
2017-09-12T20:52:55.165Z,14.00
2017-09-12T20:55:21.151Z,14.00
2017-09-12T20:57:47.135Z,13.90
2017-09-12T21:00:13.102Z,13.90
2017-09-12T21:02:39.140Z,13.90
2017-09-12T21:05:05.899Z,13.90
2017-09-12T21:07:31.915Z,13.80
2017-09-12T21:09:57.919Z,13.90
2017-09-12T21:12:24.752Z,13.80
2017-09-12T21:14:50.796Z,13.80
2017-09-12T21:17:17.062Z,13.90
2017-09-12T21:19:43.051Z,13.90
2017-09-12T21:22:09.859Z,13.90
2017-09-12T21:24:35.872Z,13.80
2017-09-12T21:27:01.921Z,13.80
2017-09-12T21:29:28.021Z,13.80
2017-09-12T21:31:54.048Z,13.80
2017-09-12T21:34:20.061Z,13.80
2017-09-12T21:36:46.123Z,13.70
2017-09-12T21:39:12.109Z,13.80
2017-09-12T21:41:38.173Z,13.80
2017-09-12T21:44:04.318Z,13.80
2017-09-12T21:46:30.314Z,13.80
2017-09-12T21:48:56.421Z,13.80
2017-09-12T21:51:22.482Z,13.80
2017-09-12T21:53:48.446Z,13.80
2017-09-12T21:56:14.520Z,13.80
2017-09-12T21:58:40.689Z,13.80
2017-09-12T22:01:06.666Z,13.80
2017-09-12T22:03:32.762Z,13.70
2017-09-12T22:05:58.799Z,13.80
2017-09-12T22:08:24.749Z,13.90
2017-09-12T22:10:51.431Z,13.70
2017-09-12T22:13:17.473Z,13.60
2017-09-12T22:15:44.173Z,13.60
2017-09-12T22:18:10.136Z,13.50
2017-09-12T22:20:36.860Z,13.50
2017-09-12T22:23:02.873Z,13.50
2017-09-12T22:25:28.831Z,13.40
2017-09-12T22:27:54.732Z,13.60
2017-09-12T22:30:20.693Z,13.50
2017-09-12T22:32:46.650Z,13.50
2017-09-12T22:35:12.716Z,13.40
2017-09-12T22:37:38.739Z,13.40
2017-09-12T22:40:04.742Z,13.30
2017-09-12T22:42:30.671Z,13.20
2017-09-12T22:44:56.677Z,13.20
2017-09-12T22:47:22.642Z,13.20
2017-09-12T22:49:48.647Z,13.20
2017-09-12T22:52:14.573Z,13.20
2017-09-12T22:54:40.491Z,13.20
2017-09-12T22:57:06.563Z,13.10
2017-09-12T22:59:32.534Z,13.10
2017-09-12T23:01:58.576Z,13.10
2017-09-12T23:04:24.588Z,13.20
2017-09-12T23:06:50.605Z,13.10
2017-09-12T23:09:16.735Z,13.10
2017-09-12T23:11:42.710Z,13.10
2017-09-12T23:14:08.859Z,13.10
2017-09-12T23:16:34.850Z,13.00
2017-09-12T23:19:00.821Z,13.00
2017-09-12T23:21:26.797Z,13.00
2017-09-12T23:23:52.718Z,13.00
2017-09-12T23:26:19.361Z,13.00
2017-09-12T23:28:45.349Z,13.00
2017-09-12T23:31:11.325Z,12.90
2017-09-12T23:33:39.890Z,12.90
2017-09-12T23:36:05.847Z,12.90
2017-09-12T23:38:31.772Z,13.00
2017-09-12T23:40:57.727Z,12.90
2017-09-12T23:43:23.750Z,12.90
2017-09-12T23:45:49.795Z,12.90
2017-09-12T23:48:15.735Z,12.90
2017-09-12T23:50:41.720Z,12.90
2017-09-12T23:53:07.734Z,12.90
2017-09-12T23:55:33.675Z,12.90
2017-09-12T23:57:59.600Z,12.90
